createdAt,value
2024-03-16T00:01:15.630Z,4.53
2024-03-16T00:03:45.126Z,4.90
2024-03-16T00:06:16.165Z,3.77
2024-03-16T00:08:47.446Z,5.20
2024-03-16T00:11:15.769Z,5.37
2024-03-16T00:13:47.242Z,4.07
2024-03-16T00:16:15.939Z,3.53
2024-03-16T00:18:44.437Z,3.73
2024-03-16T00:21:13.121Z,3.60
2024-03-16T00:23:42.270Z,2.90
2024-03-16T00:26:11.316Z,2.70
2024-03-16T00:28:45.326Z,2.50
2024-03-16T00:31:16.055Z,2.53
2024-03-16T00:33:44.704Z,1.97
2024-03-16T00:36:15.079Z,2.03
2024-03-16T00:38:44.677Z,2.33
2024-03-16T00:41:16.840Z,1.90
2024-03-16T00:43:48.891Z,1.70
2024-03-16T00:46:26.296Z,1.97
2024-03-16T00:49:17.654Z,1.40
2024-03-16T00:51:46.590Z,1.87
2024-03-16T00:54:15.722Z,2.10
2024-03-16T00:57:06.508Z,2.33
2024-03-16T00:59:37.704Z,2.73
2024-03-16T01:02:06.678Z,2.10
2024-03-16T01:04:35.355Z,2.43
2024-03-16T01:07:06.503Z,2.00
2024-03-16T01:09:34.979Z,2.50
2024-03-16T01:12:04.133Z,2.00
2024-03-16T01:14:34.088Z,2.40
2024-03-16T01:17:04.854Z,2.20
2024-03-16T01:19:33.553Z,2.43
2024-03-16T01:22:05.089Z,2.63
2024-03-16T01:24:35.070Z,3.03
2024-03-16T01:27:09.974Z,3.10
2024-03-16T01:29:38.523Z,3.80
2024-03-16T01:32:09.835Z,2.80
2024-03-16T01:34:38.651Z,3.33
2024-03-16T01:37:07.484Z,2.87
2024-03-16T01:39:41.412Z,2.90
2024-03-16T01:42:37.798Z,3.17
2024-03-16T01:45:11.193Z,3.10
2024-03-16T01:47:41.441Z,2.23
2024-03-16T01:50:12.559Z,2.13
2024-03-16T01:52:42.402Z,2.03
2024-03-16T01:55:35.570Z,2.97
2024-03-16T01:58:05.736Z,3.10
2024-03-16T02:00:34.454Z,2.03
2024-03-16T02:03:03.950Z,2.13
2024-03-16T02:05:33.198Z,1.90
2024-03-16T02:08:24.688Z,1.50
2024-03-16T02:10:53.482Z,1.53
2024-03-16T02:13:22.527Z,1.50
2024-03-16T02:15:51.193Z,1.80
2024-03-16T02:18:22.493Z,1.00
2024-03-16T02:20:51.143Z,1.00
2024-03-16T02:23:21.174Z,1.03
2024-03-16T02:25:58.881Z,1.20
2024-03-16T02:28:28.793Z,1.13
2024-03-16T02:30:57.929Z,0.90
2024-03-16T02:33:42.075Z,1.10
2024-03-16T02:36:11.357Z,1.10
2024-03-16T02:38:42.149Z,0.90
2024-03-16T02:41:14.255Z,1.00
2024-03-16T02:43:45.825Z,1.00
2024-03-16T02:46:14.344Z,1.40
2024-03-16T02:48:43.622Z,1.07
2024-03-16T02:51:21.908Z,1.47
2024-03-16T02:53:50.481Z,1.17
2024-03-16T02:56:25.525Z,0.73
2024-03-16T02:58:54.612Z,0.90
2024-03-16T03:01:26.172Z,0.70
2024-03-16T03:03:54.785Z,0.57
2024-03-16T03:06:29.899Z,0.70
2024-03-16T03:08:58.937Z,0.70
2024-03-16T03:11:28.148Z,1.03
2024-03-16T03:13:57.326Z,0.90
2024-03-16T03:16:30.883Z,0.80
2024-03-16T03:19:00.705Z,0.60
2024-03-16T03:21:30.637Z,0.90
2024-03-16T03:24:01.077Z,1.10
2024-03-16T03:26:33.562Z,0.80
2024-03-16T03:29:05.456Z,0.80
2024-03-16T03:31:52.699Z,1.53
2024-03-16T03:34:31.781Z,0.87
2024-03-16T03:37:02.894Z,1.50
2024-03-16T03:39:43.066Z,1.10
2024-03-16T03:42:14.512Z,2.03
2024-03-16T03:45:26.387Z,1.30
2024-03-16T03:48:06.135Z,0.90
2024-03-16T03:50:40.003Z,0.73
2024-03-16T03:53:08.666Z,0.80
2024-03-16T03:55:36.940Z,1.07
2024-03-16T03:58:05.927Z,0.93
2024-03-16T04:00:34.760Z,0.80
2024-03-16T04:03:04.006Z,2.13
2024-03-16T04:05:32.544Z,0.70
2024-03-16T04:08:01.851Z,1.37
2024-03-16T04:10:32.268Z,1.40
2024-03-16T04:13:03.795Z,1.27
2024-03-16T04:15:32.598Z,1.23
2024-03-16T04:18:00.281Z,1.50
2024-03-16T04:20:30.099Z,1.10
2024-03-16T04:23:02.217Z,1.60
2024-03-16T04:25:30.835Z,1.50
2024-03-16T04:27:59.817Z,1.60
2024-03-16T04:30:36.004Z,1.23
2024-03-16T04:33:08.635Z,3.60
2024-03-16T04:35:37.474Z,1.27
2024-03-16T04:38:06.933Z,1.17
2024-03-16T04:40:40.856Z,1.60
2024-03-16T04:43:09.510Z,0.83
2024-03-16T04:45:38.155Z,1.60
2024-03-16T04:48:07.916Z,1.13
2024-03-16T04:50:37.427Z,1.33
2024-03-16T04:53:07.660Z,1.50
2024-03-16T04:55:36.643Z,1.00
2024-03-16T04:58:09.786Z,0.93
2024-03-16T05:00:38.817Z,1.10
2024-03-16T05:03:08.045Z,1.20
2024-03-16T05:05:39.602Z,1.00
2024-03-16T05:08:09.553Z,1.20
2024-03-16T05:10:38.028Z,0.93
2024-03-16T05:13:07.994Z,0.90
2024-03-16T05:15:36.809Z,1.13
2024-03-16T05:18:05.863Z,1.07
2024-03-16T05:20:34.522Z,0.87
2024-03-16T05:23:03.998Z,1.23
2024-03-16T05:25:32.814Z,1.00
2024-03-16T05:28:01.327Z,1.23
2024-03-16T05:30:30.309Z,1.23
2024-03-16T05:33:01.230Z,0.90
2024-03-16T05:35:30.779Z,1.77
2024-03-16T05:37:59.336Z,1.30
2024-03-16T05:40:28.786Z,1.40
2024-03-16T05:42:59.326Z,1.47
2024-03-16T05:45:31.125Z,1.30
2024-03-16T05:48:00.693Z,1.10
2024-03-16T05:50:29.519Z,1.20
2024-03-16T05:52:58.458Z,1.27
2024-03-16T05:55:27.256Z,1.50
2024-03-16T05:57:55.583Z,1.90
2024-03-16T06:00:24.263Z,1.33
2024-03-16T06:02:52.663Z,1.33
2024-03-16T06:05:20.969Z,1.37
2024-03-16T06:07:49.237Z,1.10
2024-03-16T06:10:17.652Z,1.50
2024-03-16T06:12:45.932Z,1.23
2024-03-16T06:15:14.267Z,1.23
2024-03-16T06:17:42.699Z,0.87
2024-03-16T06:20:14.528Z,1.10
2024-03-16T06:22:43.012Z,0.93
2024-03-16T06:25:13.921Z,0.80
2024-03-16T06:27:51.180Z,0.97
2024-03-16T06:30:20.788Z,1.37
2024-03-16T06:33:07.226Z,1.40
2024-03-16T06:35:37.414Z,0.90
2024-03-16T06:38:05.994Z,1.00
2024-03-16T06:40:34.348Z,0.97
2024-03-16T06:43:02.731Z,0.90
2024-03-16T06:45:31.061Z,1.27
2024-03-16T06:47:59.571Z,1.10
2024-03-16T06:50:28.391Z,1.10
2024-03-16T06:52:56.915Z,1.23
2024-03-16T06:55:25.183Z,1.17
2024-03-16T06:57:53.590Z,1.63
2024-03-16T07:00:22.527Z,1.10
2024-03-16T07:02:50.754Z,1.00
2024-03-16T07:05:19.210Z,1.20
2024-03-16T07:07:47.770Z,1.30
2024-03-16T07:10:17.484Z,1.00
2024-03-16T07:12:45.875Z,1.17
2024-03-16T07:15:16.983Z,1.50
2024-03-16T07:17:45.703Z,0.97
2024-03-16T07:20:15.980Z,1.10
2024-03-16T07:22:44.258Z,1.47
2024-03-16T07:25:12.582Z,1.00
2024-03-16T07:27:40.980Z,1.10
2024-03-16T07:30:09.528Z,0.90
2024-03-16T07:32:40.869Z,1.00
2024-03-16T07:35:09.481Z,1.03
2024-03-16T07:37:37.788Z,1.20
2024-03-16T07:40:07.683Z,1.37
2024-03-16T07:42:36.105Z,1.20
2024-03-16T07:45:04.503Z,2.03
2024-03-16T07:47:33.301Z,1.00
2024-03-16T07:50:01.618Z,1.50
2024-03-16T07:52:29.956Z,1.60
2024-03-16T07:55:01.574Z,0.97
2024-03-16T07:57:30.262Z,1.00
2024-03-16T07:59:58.600Z,1.30
2024-03-16T08:02:26.916Z,1.23
2024-03-16T08:04:55.364Z,1.00
2024-03-16T08:07:24.721Z,1.33
2024-03-16T08:09:53.456Z,0.80
2024-03-16T08:12:21.968Z,0.80
2024-03-16T08:14:50.537Z,1.03
2024-03-16T08:17:18.801Z,1.30
2024-03-16T08:19:47.189Z,0.80
2024-03-16T08:22:15.591Z,0.90
2024-03-16T08:24:44.113Z,1.10
2024-03-16T08:27:14.370Z,0.93
2024-03-16T08:29:42.994Z,1.30
2024-03-16T08:32:13.092Z,1.00
2024-03-16T08:34:41.651Z,1.30
2024-03-16T08:37:10.022Z,0.80
2024-03-16T08:39:39.568Z,0.97
2024-03-16T08:42:09.004Z,0.83
2024-03-16T08:44:37.525Z,1.20
2024-03-16T08:47:06.424Z,0.80
2024-03-16T08:49:35.416Z,1.10
2024-03-16T08:52:03.900Z,0.63
2024-03-16T08:54:33.935Z,0.63
2024-03-16T08:57:02.264Z,0.60
2024-03-16T08:59:33.078Z,0.73
2024-03-16T09:02:01.572Z,0.60
2024-03-16T09:04:29.994Z,1.00
2024-03-16T09:06:58.452Z,0.47
2024-03-16T09:09:30.871Z,0.60
2024-03-16T09:12:02.168Z,0.70
2024-03-16T09:14:30.465Z,0.50
2024-03-16T09:16:58.734Z,0.53
2024-03-16T09:19:27.297Z,0.70
2024-03-16T09:21:55.843Z,0.90
2024-03-16T09:24:24.288Z,0.60
2024-03-16T09:26:53.112Z,0.60
2024-03-16T09:29:22.149Z,0.70
2024-03-16T09:31:51.556Z,0.70
2024-03-16T09:34:19.860Z,0.63
2024-03-16T09:36:48.161Z,0.90
2024-03-16T09:39:17.137Z,0.80
2024-03-16T09:41:49.345Z,0.97
